sensor_id;sensor_type;location;lat;lon;timestamp;P1;durP1;ratioP1;P2;durP2;ratioP2
84937;SDS011;75210;52.210;20.902;2024-03-08T00:00:28;53.95;;;24.65;;
84937;SDS011;75210;52.210;20.902;2024-03-08T00:01:28;59.20;;;25.00;;
84937;SDS011;75210;52.210;20.902;2024-03-08T00:02:29;56.45;;;24.17;;
84937;SDS011;75210;52.210;20.902;2024-03-08T00:03:30;56.13;;;24.20;;
84937;SDS011;75210;52.210;20.902;2024-03-08T00:04:31;53.35;;;23.08;;
84937;SDS011;75210;52.210;20.902;2024-03-08T00:05:32;54.85;;;24.40;;
84937;SDS011;75210;52.210;20.902;2024-03-08T00:06:32;51.70;;;23.10;;
84937;SDS011;75210;52.210;20.902;2024-03-08T00:07:34;51.78;;;22.48;;
84937;SDS011;75210;52.210;20.902;2024-03-08T00:08:34;51.78;;;23.08;;
84937;SDS011;75210;52.210;20.902;2024-03-08T00:09:35;49.97;;;23.58;;
84937;SDS011;75210;52.210;20.902;2024-03-08T00:10:35;51.25;;;22.08;;
84937;SDS011;75210;52.210;20.902;2024-03-08T00:11:36;51.72;;;21.85;;
84937;SDS011;75210;52.210;20.902;2024-03-08T00:12:36;58.35;;;24.45;;
84937;SDS011;75210;52.210;20.902;2024-03-08T00:13:37;53.25;;;24.02;;
84937;SDS011;75210;52.210;20.902;2024-03-08T00:14:37;54.13;;;23.67;;
84937;SDS011;75210;52.210;20.902;2024-03-08T00:15:38;51.88;;;21.52;;
84937;SDS011;75210;52.210;20.902;2024-03-08T00:16:38;54.33;;;23.42;;
84937;SDS011;75210;52.210;20.902;2024-03-08T00:17:38;49.72;;;22.88;;
84937;SDS011;75210;52.210;20.902;2024-03-08T00:18:39;47.38;;;22.55;;
84937;SDS011;75210;52.210;20.902;2024-03-08T00:19:39;53.03;;;23.92;;
84937;SDS011;75210;52.210;20.902;2024-03-08T00:20:40;52.83;;;22.95;;
84937;SDS011;75210;52.210;20.902;2024-03-08T00:21:40;49.80;;;23.10;;
84937;SDS011;75210;52.210;20.902;2024-03-08T00:22:42;51.15;;;22.63;;
84937;SDS011;75210;52.210;20.902;2024-03-08T00:23:43;51.75;;;22.98;;
84937;SDS011;75210;52.210;20.902;2024-03-08T00:24:43;52.22;;;22.50;;
84937;SDS011;75210;52.210;20.902;2024-03-08T00:25:43;46.85;;;22.27;;
84937;SDS011;75210;52.210;20.902;2024-03-08T00:26:44;48.75;;;22.38;;
84937;SDS011;75210;52.210;20.902;2024-03-08T00:27:44;53.75;;;22.80;;
84937;SDS011;75210;52.210;20.902;2024-03-08T00:28:45;48.42;;;21.23;;
84937;SDS011;75210;52.210;20.902;2024-03-08T00:29:45;52.13;;;22.30;;
84937;SDS011;75210;52.210;20.902;2024-03-08T00:30:45;49.40;;;22.70;;
84937;SDS011;75210;52.210;20.902;2024-03-08T00:31:46;53.17;;;23.92;;
84937;SDS011;75210;52.210;20.902;2024-03-08T00:32:46;54.30;;;23.05;;
84937;SDS011;75210;52.210;20.902;2024-03-08T00:33:47;56.33;;;22.95;;
84937;SDS011;75210;52.210;20.902;2024-03-08T00:34:47;49.13;;;22.42;;
84937;SDS011;75210;52.210;20.902;2024-03-08T00:35:48;48.38;;;23.08;;
84937;SDS011;75210;52.210;20.902;2024-03-08T00:36:48;46.30;;;21.70;;
84937;SDS011;75210;52.210;20.902;2024-03-08T00:37:50;59.40;;;21.55;;
84937;SDS011;75210;52.210;20.902;2024-03-08T00:38:51;55.08;;;23.23;;
84937;SDS011;75210;52.210;20.902;2024-03-08T00:39:51;57.08;;;24.58;;
84937;SDS011;75210;52.210;20.902;2024-03-08T00:40:52;50.90;;;22.13;;
84937;SDS011;75210;52.210;20.902;2024-03-08T00:41:53;55.40;;;25.70;;
84937;SDS011;75210;52.210;20.902;2024-03-08T00:42:53;54.88;;;24.95;;
84937;SDS011;75210;52.210;20.902;2024-03-08T00:43:53;54.90;;;23.20;;
84937;SDS011;75210;52.210;20.902;2024-03-08T00:44:54;53.10;;;22.70;;
84937;SDS011;75210;52.210;20.902;2024-03-08T00:45:54;45.38;;;21.05;;
84937;SDS011;75210;52.210;20.902;2024-03-08T00:46:55;51.55;;;22.80;;
84937;SDS011;75210;52.210;20.902;2024-03-08T00:47:55;56.53;;;23.83;;
84937;SDS011;75210;52.210;20.902;2024-03-08T00:48:55;49.60;;;21.50;;
84937;SDS011;75210;52.210;20.902;2024-03-08T00:49:56;49.97;;;22.85;;
84937;SDS011;75210;52.210;20.902;2024-03-08T00:50:56;48.15;;;21.60;;
84937;SDS011;75210;52.210;20.902;2024-03-08T00:51:57;54.58;;;24.30;;
84937;SDS011;75210;52.210;20.902;2024-03-08T00:53:01;49.25;;;22.08;;
84937;SDS011;75210;52.210;20.902;2024-03-08T00:54:01;49.63;;;23.00;;
84937;SDS011;75210;52.210;20.902;2024-03-08T00:55:02;54.20;;;25.17;;
84937;SDS011;75210;52.210;20.902;2024-03-08T00:56:03;44.55;;;20.70;;
84937;SDS011;75210;52.210;20.902;2024-03-08T00:57:03;47.20;;;21.92;;
84937;SDS011;75210;52.210;20.902;2024-03-08T00:58:04;54.10;;;21.90;;
84937;SDS011;75210;52.210;20.902;2024-03-08T00:59:05;53.05;;;23.48;;
84937;SDS011;75210;52.210;20.902;2024-03-08T01:00:07;50.72;;;24.15;;
84937;SDS011;75210;52.210;20.902;2024-03-08T01:01:08;55.45;;;23.70;;
84937;SDS011;75210;52.210;20.902;2024-03-08T01:02:09;51.08;;;23.20;;
84937;SDS011;75210;52.210;20.902;2024-03-08T01:03:10;56.08;;;23.63;;
84937;SDS011;75210;52.210;20.902;2024-03-08T01:04:10;56.67;;;25.25;;
84937;SDS011;75210;52.210;20.902;2024-03-08T01:05:11;51.97;;;22.17;;
84937;SDS011;75210;52.210;20.902;2024-03-08T01:06:13;52.40;;;24.33;;
84937;SDS011;75210;52.210;20.902;2024-03-08T01:07:14;58.00;;;25.23;;
84937;SDS011;75210;52.210;20.902;2024-03-08T01:08:16;53.25;;;22.10;;
84937;SDS011;75210;52.210;20.902;2024-03-08T01:09:16;54.17;;;24.67;;
84937;SDS011;75210;52.210;20.902;2024-03-08T01:10:17;54.33;;;24.70;;
84937;SDS011;75210;52.210;20.902;2024-03-08T01:11:18;54.22;;;22.13;;
84937;SDS011;75210;52.210;20.902;2024-03-08T01:12:18;47.50;;;22.77;;
84937;SDS011;75210;52.210;20.902;2024-03-08T01:13:18;55.92;;;23.98;;
84937;SDS011;75210;52.210;20.902;2024-03-08T01:14:19;62.85;;;25.42;;
84937;SDS011;75210;52.210;20.902;2024-03-08T01:15:20;51.45;;;22.83;;
84937;SDS011;75210;52.210;20.902;2024-03-08T01:16:20;51.38;;;23.65;;
84937;SDS011;75210;52.210;20.902;2024-03-08T01:17:21;57.97;;;25.05;;
84937;SDS011;75210;52.210;20.902;2024-03-08T01:18:21;55.05;;;23.23;;
84937;SDS011;75210;52.210;20.902;2024-03-08T01:19:22;54.65;;;23.52;;
84937;SDS011;75210;52.210;20.902;2024-03-08T01:20:25;58.33;;;25.65;;
84937;SDS011;75210;52.210;20.902;2024-03-08T01:21:25;53.85;;;23.00;;
84937;SDS011;75210;52.210;20.902;2024-03-08T01:22:26;52.50;;;23.77;;
84937;SDS011;75210;52.210;20.902;2024-03-08T01:23:28;60.85;;;25.13;;
84937;SDS011;75210;52.210;20.902;2024-03-08T01:24:28;50.85;;;23.05;;
84937;SDS011;75210;52.210;20.902;2024-03-08T01:25:29;52.50;;;24.10;;
84937;SDS011;75210;52.210;20.902;2024-03-08T01:26:29;57.95;;;25.23;;
84937;SDS011;75210;52.210;20.902;2024-03-08T01:27:29;55.33;;;23.35;;
84937;SDS011;75210;52.210;20.902;2024-03-08T01:28:30;56.17;;;26.13;;
84937;SDS011;75210;52.210;20.902;2024-03-08T01:29:30;54.13;;;24.05;;
84937;SDS011;75210;52.210;20.902;2024-03-08T01:30:31;55.38;;;25.25;;
84937;SDS011;75210;52.210;20.902;2024-03-08T01:31:31;56.40;;;25.67;;
84937;SDS011;75210;52.210;20.902;2024-03-08T01:32:32;52.55;;;22.45;;
84937;SDS011;75210;52.210;20.902;2024-03-08T01:33:32;61.58;;;27.17;;
84937;SDS011;75210;52.210;20.902;2024-03-08T01:34:33;56.00;;;25.65;;
84937;SDS011;75210;52.210;20.902;2024-03-08T01:35:33;56.90;;;24.65;;
84937;SDS011;75210;52.210;20.902;2024-03-08T01:36:34;56.75;;;24.60;;
84937;SDS011;75210;52.210;20.902;2024-03-08T01:37:34;58.63;;;24.92;;
84937;SDS011;75210;52.210;20.902;2024-03-08T01:38:36;53.08;;;23.58;;
84937;SDS011;75210;52.210;20.902;2024-03-08T01:39:36;56.08;;;25.02;;
84937;SDS011;75210;52.210;20.902;2024-03-08T01:40:37;54.70;;;23.95;;
84937;SDS011;75210;52.210;20.902;2024-03-08T01:41:37;62.28;;;27.23;;
84937;SDS011;75210;52.210;20.902;2024-03-08T01:42:39;52.58;;;24.70;;
84937;SDS011;75210;52.210;20.902;2024-03-08T01:43:39;55.35;;;23.98;;
84937;SDS011;75210;52.210;20.902;2024-03-08T01:44:40;61.70;;;26.10;;
84937;SDS011;75210;52.210;20.902;2024-03-08T01:45:40;59.97;;;25.67;;
84937;SDS011;75210;52.210;20.902;2024-03-08T01:46:41;62.58;;;27.27;;
84937;SDS011;75210;52.210;20.902;2024-03-08T01:47:41;55.40;;;24.23;;
84937;SDS011;75210;52.210;20.902;2024-03-08T01:48:42;61.35;;;25.55;;
84937;SDS011;75210;52.210;20.902;2024-03-08T01:49:43;60.47;;;27.25;;
84937;SDS011;75210;52.210;20.902;2024-03-08T01:50:44;54.72;;;25.08;;
84937;SDS011;75210;52.210;20.902;2024-03-08T01:51:45;65.30;;;28.33;;
84937;SDS011;75210;52.210;20.902;2024-03-08T01:52:46;61.80;;;26.40;;
84937;SDS011;75210;52.210;20.902;2024-03-08T01:53:49;62.60;;;25.88;;
84937;SDS011;75210;52.210;20.902;2024-03-08T01:54:49;56.47;;;24.88;;
84937;SDS011;75210;52.210;20.902;2024-03-08T01:55:49;54.78;;;24.77;;
84937;SDS011;75210;52.210;20.902;2024-03-08T01:56:53;59.03;;;24.75;;
84937;SDS011;75210;52.210;20.902;2024-03-08T01:57:54;61.88;;;24.60;;
84937;SDS011;75210;52.210;20.902;2024-03-08T01:58:55;55.70;;;24.77;;
84937;SDS011;75210;52.210;20.902;2024-03-08T01:59:56;63.88;;;27.48;;
84937;SDS011;75210;52.210;20.902;2024-03-08T02:00:56;51.97;;;23.23;;
84937;SDS011;75210;52.210;20.902;2024-03-08T02:01:59;52.60;;;23.70;;
84937;SDS011;75210;52.210;20.902;2024-03-08T02:03:02;57.55;;;24.45;;
84937;SDS011;75210;52.210;20.902;2024-03-08T02:04:03;54.80;;;24.98;;
84937;SDS011;75210;52.210;20.902;2024-03-08T02:05:03;58.17;;;24.52;;
84937;SDS011;75210;52.210;20.902;2024-03-08T02:06:05;52.97;;;24.23;;
84937;SDS011;75210;52.210;20.902;2024-03-08T02:07:05;62.00;;;26.58;;
84937;SDS011;75210;52.210;20.902;2024-03-08T02:08:06;53.40;;;24.25;;
84937;SDS011;75210;52.210;20.902;2024-03-08T02:09:10;55.17;;;25.23;;
84937;SDS011;75210;52.210;20.902;2024-03-08T02:10:10;58.65;;;25.65;;
84937;SDS011;75210;52.210;20.902;2024-03-08T02:11:11;52.45;;;24.35;;
84937;SDS011;75210;52.210;20.902;2024-03-08T02:12:12;51.85;;;25.35;;
84937;SDS011;75210;52.210;20.902;2024-03-08T02:13:12;54.10;;;25.17;;
84937;SDS011;75210;52.210;20.902;2024-03-08T02:14:13;55.53;;;24.40;;
84937;SDS011;75210;52.210;20.902;2024-03-08T02:15:14;59.25;;;26.40;;
84937;SDS011;75210;52.210;20.902;2024-03-08T02:16:19;57.45;;;26.13;;
84937;SDS011;75210;52.210;20.902;2024-03-08T02:17:20;61.13;;;27.95;;
84937;SDS011;75210;52.210;20.902;2024-03-08T02:18:24;55.25;;;25.50;;
84937;SDS011;75210;52.210;20.902;2024-03-08T02:19:24;59.08;;;25.70;;
84937;SDS011;75210;52.210;20.902;2024-03-08T02:20:29;60.47;;;26.77;;
84937;SDS011;75210;52.210;20.902;2024-03-08T02:21:29;61.65;;;29.60;;
84937;SDS011;75210;52.210;20.902;2024-03-08T02:22:30;60.95;;;23.58;;
84937;SDS011;75210;52.210;20.902;2024-03-08T02:23:31;51.22;;;23.60;;
84937;SDS011;75210;52.210;20.902;2024-03-08T02:24:32;63.33;;;26.27;;
84937;SDS011;75210;52.210;20.902;2024-03-08T02:25:33;56.95;;;25.92;;
84937;SDS011;75210;52.210;20.902;2024-03-08T02:26:33;56.88;;;25.17;;
84937;SDS011;75210;52.210;20.902;2024-03-08T02:27:34;62.83;;;27.60;;
84937;SDS011;75210;52.210;20.902;2024-03-08T02:28:34;54.97;;;24.42;;
84937;SDS011;75210;52.210;20.902;2024-03-08T02:29:35;57.47;;;26.35;;
84937;SDS011;75210;52.210;20.902;2024-03-08T02:30:36;52.10;;;24.10;;
84937;SDS011;75210;52.210;20.902;2024-03-08T02:31:37;54.75;;;26.60;;
84937;SDS011;75210;52.210;20.902;2024-03-08T02:32:37;59.00;;;24.67;;
84937;SDS011;75210;52.210;20.902;2024-03-08T02:33:38;56.75;;;25.48;;
84937;SDS011;75210;52.210;20.902;2024-03-08T02:34:38;54.95;;;25.38;;
84937;SDS011;75210;52.210;20.902;2024-03-08T02:35:40;55.55;;;25.30;;
84937;SDS011;75210;52.210;20.902;2024-03-08T02:36:40;59.17;;;26.15;;
84937;SDS011;75210;52.210;20.902;2024-03-08T02:37:41;55.45;;;25.58;;
84937;SDS011;75210;52.210;20.902;2024-03-08T02:38:41;59.40;;;25.75;;
84937;SDS011;75210;52.210;20.902;2024-03-08T02:39:42;57.65;;;24.98;;
84937;SDS011;75210;52.210;20.902;2024-03-08T02:40:42;56.65;;;24.33;;
84937;SDS011;75210;52.210;20.902;2024-03-08T02:41:43;57.95;;;25.30;;
84937;SDS011;75210;52.210;20.902;2024-03-08T02:42:43;58.70;;;26.52;;
84937;SDS011;75210;52.210;20.902;2024-03-08T02:43:43;56.22;;;26.05;;
84937;SDS011;75210;52.210;20.902;2024-03-08T02:44:44;54.80;;;25.02;;
84937;SDS011;75210;52.210;20.902;2024-03-08T02:45:44;53.75;;;24.50;;
84937;SDS011;75210;52.210;20.902;2024-03-08T02:46:45;55.92;;;25.38;;
84937;SDS011;75210;52.210;20.902;2024-03-08T02:47:46;58.55;;;25.83;;
84937;SDS011;75210;52.210;20.902;2024-03-08T02:48:46;59.25;;;26.27;;
84937;SDS011;75210;52.210;20.902;2024-03-08T02:49:46;59.60;;;25.25;;
84937;SDS011;75210;52.210;20.902;2024-03-08T02:50:48;56.38;;;24.83;;
84937;SDS011;75210;52.210;20.902;2024-03-08T02:51:49;62.22;;;26.70;;
84937;SDS011;75210;52.210;20.902;2024-03-08T02:52:49;58.63;;;26.48;;
84937;SDS011;75210;52.210;20.902;2024-03-08T02:53:50;59.80;;;27.02;;
84937;SDS011;75210;52.210;20.902;2024-03-08T02:54:50;51.97;;;26.27;;
84937;SDS011;75210;52.210;20.902;2024-03-08T02:55:51;59.60;;;25.85;;
84937;SDS011;75210;52.210;20.902;2024-03-08T02:56:51;54.88;;;25.27;;
84937;SDS011;75210;52.210;20.902;2024-03-08T02:57:51;57.65;;;26.10;;
84937;SDS011;75210;52.210;20.902;2024-03-08T02:58:52;55.70;;;25.35;;
84937;SDS011;75210;52.210;20.902;2024-03-08T02:59:53;58.55;;;26.15;;
84937;SDS011;75210;52.210;20.902;2024-03-08T03:00:53;58.72;;;24.88;;
84937;SDS011;75210;52.210;20.902;2024-03-08T03:01:53;57.95;;;25.83;;
84937;SDS011;75210;52.210;20.902;2024-03-08T03:02:54;63.83;;;26.58;;
84937;SDS011;75210;52.210;20.902;2024-03-08T03:03:54;55.33;;;25.23;;
84937;SDS011;75210;52.210;20.902;2024-03-08T03:04:55;59.70;;;27.02;;
84937;SDS011;75210;52.210;20.902;2024-03-08T03:05:57;62.97;;;28.10;;
84937;SDS011;75210;52.210;20.902;2024-03-08T03:06:57;58.28;;;26.98;;
84937;SDS011;75210;52.210;20.902;2024-03-08T03:07:57;60.85;;;25.33;;
84937;SDS011;75210;52.210;20.902;2024-03-08T03:08:58;55.38;;;26.00;;
84937;SDS011;75210;52.210;20.902;2024-03-08T03:09:58;62.05;;;27.70;;
84937;SDS011;75210;52.210;20.902;2024-03-08T03:10:59;58.40;;;26.55;;
84937;SDS011;75210;52.210;20.902;2024-03-08T03:11:59;55.70;;;25.20;;
84937;SDS011;75210;52.210;20.902;2024-03-08T03:13:00;54.10;;;25.27;;
84937;SDS011;75210;52.210;20.902;2024-03-08T03:14:00;55.53;;;24.90;;
84937;SDS011;75210;52.210;20.902;2024-03-08T03:15:01;61.13;;;26.60;;
84937;SDS011;75210;52.210;20.902;2024-03-08T03:16:01;58.05;;;27.20;;
84937;SDS011;75210;52.210;20.902;2024-03-08T03:17:02;59.03;;;26.27;;
84937;SDS011;75210;52.210;20.902;2024-03-08T03:18:02;57.08;;;24.98;;
84937;SDS011;75210;52.210;20.902;2024-03-08T03:19:03;56.28;;;25.02;;
84937;SDS011;75210;52.210;20.902;2024-03-08T03:20:04;53.85;;;25.45;;
84937;SDS011;75210;52.210;20.902;2024-03-08T03:22:08;59.33;;;25.67;;
84937;SDS011;75210;52.210;20.902;2024-03-08T03:23:09;56.80;;;26.75;;
84937;SDS011;75210;52.210;20.902;2024-03-08T03:24:09;64.35;;;25.95;;
84937;SDS011;75210;52.210;20.902;2024-03-08T03:25:09;58.63;;;24.67;;
84937;SDS011;75210;52.210;20.902;2024-03-08T03:26:10;62.05;;;26.98;;
84937;SDS011;75210;52.210;20.902;2024-03-08T03:27:10;58.58;;;25.63;;
84937;SDS011;75210;52.210;20.902;2024-03-08T03:28:11;55.05;;;24.90;;
84937;SDS011;75210;52.210;20.902;2024-03-08T03:29:11;56.72;;;26.00;;
84937;SDS011;75210;52.210;20.902;2024-03-08T03:30:12;59.67;;;27.15;;
84937;SDS011;75210;52.210;20.902;2024-03-08T03:31:13;66.45;;;29.00;;
84937;SDS011;75210;52.210;20.902;2024-03-08T03:32:13;66.45;;;29.00;;
84937;SDS011;75210;52.210;20.902;2024-03-08T03:33:14;58.88;;;26.58;;
84937;SDS011;75210;52.210;20.902;2024-03-08T03:34:15;61.88;;;25.52;;
84937;SDS011;75210;52.210;20.902;2024-03-08T03:35:15;62.17;;;27.33;;
84937;SDS011;75210;52.210;20.902;2024-03-08T03:36:18;61.92;;;26.42;;
84937;SDS011;75210;52.210;20.902;2024-03-08T03:37:18;59.22;;;26.70;;
84937;SDS011;75210;52.210;20.902;2024-03-08T03:38:19;62.13;;;28.17;;
84937;SDS011;75210;52.210;20.902;2024-03-08T03:39:19;62.00;;;27.38;;
84937;SDS011;75210;52.210;20.902;2024-03-08T03:40:20;58.80;;;26.10;;
84937;SDS011;75210;52.210;20.902;2024-03-08T03:41:20;60.92;;;25.70;;
84937;SDS011;75210;52.210;20.902;2024-03-08T03:42:21;60.03;;;25.75;;
84937;SDS011;75210;52.210;20.902;2024-03-08T03:43:21;60.47;;;26.65;;
84937;SDS011;75210;52.210;20.902;2024-03-08T03:44:22;58.33;;;25.80;;
84937;SDS011;75210;52.210;20.902;2024-03-08T03:45:27;58.25;;;26.95;;
84937;SDS011;75210;52.210;20.902;2024-03-08T03:46:28;59.42;;;26.15;;
84937;SDS011;75210;52.210;20.902;2024-03-08T03:47:28;59.17;;;26.27;;
84937;SDS011;75210;52.210;20.902;2024-03-08T03:48:29;63.03;;;26.63;;
84937;SDS011;75210;52.210;20.902;2024-03-08T03:49:29;53.03;;;25.02;;
84937;SDS011;75210;52.210;20.902;2024-03-08T03:50:30;63.63;;;27.15;;
84937;SDS011;75210;52.210;20.902;2024-03-08T03:51:32;62.35;;;26.00;;
84937;SDS011;75210;52.210;20.902;2024-03-08T03:53:32;55.15;;;24.77;;
84937;SDS011;75210;52.210;20.902;2024-03-08T03:54:33;57.40;;;24.67;;
84937;SDS011;75210;52.210;20.902;2024-03-08T03:55:33;62.97;;;26.73;;
84937;SDS011;75210;52.210;20.902;2024-03-08T03:56:34;56.72;;;25.73;;
84937;SDS011;75210;52.210;20.902;2024-03-08T03:57:34;60.58;;;26.70;;
84937;SDS011;75210;52.210;20.902;2024-03-08T03:58:35;59.97;;;25.88;;
84937;SDS011;75210;52.210;20.902;2024-03-08T03:59:35;68.30;;;26.77;;
84937;SDS011;75210;52.210;20.902;2024-03-08T04:00:35;64.00;;;27.30;;
84937;SDS011;75210;52.210;20.902;2024-03-08T04:01:36;63.15;;;27.27;;
84937;SDS011;75210;52.210;20.902;2024-03-08T04:02:36;56.63;;;25.65;;
84937;SDS011;75210;52.210;20.902;2024-03-08T04:03:37;59.58;;;25.85;;
84937;SDS011;75210;52.210;20.902;2024-03-08T04:04:41;60.72;;;25.60;;
84937;SDS011;75210;52.210;20.902;2024-03-08T04:05:41;59.30;;;25.95;;
84937;SDS011;75210;52.210;20.902;2024-03-08T04:06:44;56.78;;;25.20;;
84937;SDS011;75210;52.210;20.902;2024-03-08T04:07:44;54.63;;;24.90;;
84937;SDS011;75210;52.210;20.902;2024-03-08T04:08:45;54.53;;;24.02;;
84937;SDS011;75210;52.210;20.902;2024-03-08T04:09:45;54.78;;;23.50;;
84937;SDS011;75210;52.210;20.902;2024-03-08T04:10:46;57.05;;;26.90;;
84937;SDS011;75210;52.210;20.902;2024-03-08T04:11:46;55.15;;;25.90;;
84937;SDS011;75210;52.210;20.902;2024-03-08T04:12:47;52.67;;;25.70;;
84937;SDS011;75210;52.210;20.902;2024-03-08T04:13:47;55.08;;;24.73;;
84937;SDS011;75210;52.210;20.902;2024-03-08T04:14:48;58.17;;;25.85;;
84937;SDS011;75210;52.210;20.902;2024-03-08T04:15:48;64.72;;;26.65;;
84937;SDS011;75210;52.210;20.902;2024-03-08T04:16:49;53.95;;;24.02;;
84937;SDS011;75210;52.210;20.902;2024-03-08T04:17:49;54.97;;;23.70;;
84937;SDS011;75210;52.210;20.902;2024-03-08T04:18:50;54.70;;;25.33;;
84937;SDS011;75210;52.210;20.902;2024-03-08T04:19:50;59.92;;;26.30;;
84937;SDS011;75210;52.210;20.902;2024-03-08T04:20:51;62.17;;;26.50;;
84937;SDS011;75210;52.210;20.902;2024-03-08T04:21:53;56.95;;;23.85;;
84937;SDS011;75210;52.210;20.902;2024-03-08T04:23:53;58.35;;;26.13;;
84937;SDS011;75210;52.210;20.902;2024-03-08T04:24:54;57.80;;;25.35;;
84937;SDS011;75210;52.210;20.902;2024-03-08T04:25:54;56.97;;;26.25;;
84937;SDS011;75210;52.210;20.902;2024-03-08T04:26:55;57.28;;;25.00;;
84937;SDS011;75210;52.210;20.902;2024-03-08T04:27:55;64.72;;;27.42;;
84937;SDS011;75210;52.210;20.902;2024-03-08T04:28:55;65.00;;;27.70;;
84937;SDS011;75210;52.210;20.902;2024-03-08T04:29:56;63.72;;;27.50;;
84937;SDS011;75210;52.210;20.902;2024-03-08T04:30:56;62.30;;;26.55;;
84937;SDS011;75210;52.210;20.902;2024-03-08T04:31:57;57.40;;;23.73;;
84937;SDS011;75210;52.210;20.902;2024-03-08T04:32:57;59.15;;;26.17;;
84937;SDS011;75210;52.210;20.902;2024-03-08T04:33:57;55.90;;;26.33;;
84937;SDS011;75210;52.210;20.902;2024-03-08T04:34:58;58.83;;;25.50;;
84937;SDS011;75210;52.210;20.902;2024-03-08T04:35:58;60.40;;;27.00;;
84937;SDS011;75210;52.210;20.902;2024-03-08T04:37:01;62.20;;;26.40;;
84937;SDS011;75210;52.210;20.902;2024-03-08T04:38:02;60.47;;;26.45;;
84937;SDS011;75210;52.210;20.902;2024-03-08T04:39:02;56.75;;;25.75;;
84937;SDS011;75210;52.210;20.902;2024-03-08T04:40:03;53.53;;;24.95;;
84937;SDS011;75210;52.210;20.902;2024-03-08T04:41:04;59.80;;;26.90;;
84937;SDS011;75210;52.210;20.902;2024-03-08T04:42:05;65.55;;;26.55;;
84937;SDS011;75210;52.210;20.902;2024-03-08T04:43:05;60.25;;;26.45;;
84937;SDS011;75210;52.210;20.902;2024-03-08T04:44:06;60.53;;;26.48;;
84937;SDS011;75210;52.210;20.902;2024-03-08T04:45:09;64.68;;;27.58;;
84937;SDS011;75210;52.210;20.902;2024-03-08T04:46:09;67.13;;;27.13;;
84937;SDS011;75210;52.210;20.902;2024-03-08T04:47:10;56.70;;;25.83;;
84937;SDS011;75210;52.210;20.902;2024-03-08T04:48:10;64.38;;;29.30;;
84937;SDS011;75210;52.210;20.902;2024-03-08T04:49:11;64.13;;;27.92;;
84937;SDS011;75210;52.210;20.902;2024-03-08T04:50:13;58.58;;;27.10;;
84937;SDS011;75210;52.210;20.902;2024-03-08T04:51:13;60.85;;;26.00;;
84937;SDS011;75210;52.210;20.902;2024-03-08T04:52:15;63.13;;;26.88;;
84937;SDS011;75210;52.210;20.902;2024-03-08T04:54:16;66.53;;;26.90;;
84937;SDS011;75210;52.210;20.902;2024-03-08T04:55:16;58.60;;;26.38;;
84937;SDS011;75210;52.210;20.902;2024-03-08T04:56:17;54.80;;;24.33;;
84937;SDS011;75210;52.210;20.902;2024-03-08T04:57:17;62.30;;;27.23;;
84937;SDS011;75210;52.210;20.902;2024-03-08T04:58:18;58.92;;;27.05;;
84937;SDS011;75210;52.210;20.902;2024-03-08T04:59:18;58.65;;;25.92;;
84937;SDS011;75210;52.210;20.902;2024-03-08T05:00:19;58.08;;;25.48;;
84937;SDS011;75210;52.210;20.902;2024-03-08T05:01:19;56.03;;;25.75;;
84937;SDS011;75210;52.210;20.902;2024-03-08T05:02:19;61.83;;;27.60;;
84937;SDS011;75210;52.210;20.902;2024-03-08T05:03:20;64.68;;;26.73;;
84937;SDS011;75210;52.210;20.902;2024-03-08T05:04:20;61.10;;;26.20;;
84937;SDS011;75210;52.210;20.902;2024-03-08T05:05:21;58.40;;;25.85;;
84937;SDS011;75210;52.210;20.902;2024-03-08T05:06:21;66.80;;;27.15;;
84937;SDS011;75210;52.210;20.902;2024-03-08T05:07:24;63.75;;;26.48;;
84937;SDS011;75210;52.210;20.902;2024-03-08T05:09:24;61.15;;;25.90;;
84937;SDS011;75210;52.210;20.902;2024-03-08T05:10:25;62.78;;;25.95;;
84937;SDS011;75210;52.210;20.902;2024-03-08T05:11:27;61.75;;;27.13;;
84937;SDS011;75210;52.210;20.902;2024-03-08T05:12:28;64.20;;;27.33;;
84937;SDS011;75210;52.210;20.902;2024-03-08T05:13:29;55.70;;;25.52;;
84937;SDS011;75210;52.210;20.902;2024-03-08T05:14:30;63.45;;;27.55;;
84937;SDS011;75210;52.210;20.902;2024-03-08T05:15:31;61.25;;;27.05;;
84937;SDS011;75210;52.210;20.902;2024-03-08T05:16:31;69.45;;;31.13;;
84937;SDS011;75210;52.210;20.902;2024-03-08T05:17:32;82.43;;;31.17;;
84937;SDS011;75210;52.210;20.902;2024-03-08T05:18:32;114.82;;;40.60;;
84937;SDS011;75210;52.210;20.902;2024-03-08T05:19:32;75.68;;;30.52;;
84937;SDS011;75210;52.210;20.902;2024-03-08T05:20:33;84.78;;;32.30;;
84937;SDS011;75210;52.210;20.902;2024-03-08T05:21:37;78.00;;;29.73;;
84937;SDS011;75210;52.210;20.902;2024-03-08T05:22:59;58.50;;;25.10;;
84937;SDS011;75210;52.210;20.902;2024-03-08T05:24:01;64.38;;;26.52;;
84937;SDS011;75210;52.210;20.902;2024-03-08T05:25:04;82.07;;;30.13;;
84937;SDS011;75210;52.210;20.902;2024-03-08T05:26:05;82.82;;;32.60;;
84937;SDS011;75210;52.210;20.902;2024-03-08T05:27:05;84.18;;;32.58;;
84937;SDS011;75210;52.210;20.902;2024-03-08T05:28:05;72.80;;;29.33;;
84937;SDS011;75210;52.210;20.902;2024-03-08T05:29:06;81.47;;;30.48;;
84937;SDS011;75210;52.210;20.902;2024-03-08T05:30:07;76.90;;;31.40;;
84937;SDS011;75210;52.210;20.902;2024-03-08T05:31:08;80.53;;;31.48;;
84937;SDS011;75210;52.210;20.902;2024-03-08T05:32:08;85.75;;;30.95;;
84937;SDS011;75210;52.210;20.902;2024-03-08T05:33:09;83.53;;;34.10;;
84937;SDS011;75210;52.210;20.902;2024-03-08T05:34:09;77.15;;;31.75;;
84937;SDS011;75210;52.210;20.902;2024-03-08T05:35:10;83.65;;;31.30;;
84937;SDS011;75210;52.210;20.902;2024-03-08T05:36:10;83.57;;;32.05;;
84937;SDS011;75210;52.210;20.902;2024-03-08T05:37:11;91.50;;;34.45;;
84937;SDS011;75210;52.210;20.902;2024-03-08T05:38:13;84.35;;;33.75;;
84937;SDS011;75210;52.210;20.902;2024-03-08T05:39:14;72.38;;;30.63;;
84937;SDS011;75210;52.210;20.902;2024-03-08T05:40:15;71.40;;;30.60;;
84937;SDS011;75210;52.210;20.902;2024-03-08T05:41:16;73.00;;;31.85;;
84937;SDS011;75210;52.210;20.902;2024-03-08T05:42:16;76.40;;;32.40;;
84937;SDS011;75210;52.210;20.902;2024-03-08T05:43:17;69.32;;;29.08;;
84937;SDS011;75210;52.210;20.902;2024-03-08T05:44:17;59.75;;;26.33;;
84937;SDS011;75210;52.210;20.902;2024-03-08T05:45:19;64.13;;;28.23;;
84937;SDS011;75210;52.210;20.902;2024-03-08T05:46:20;69.43;;;27.27;;
84937;SDS011;75210;52.210;20.902;2024-03-08T05:47:29;69.78;;;30.90;;
84937;SDS011;75210;52.210;20.902;2024-03-08T05:48:34;70.47;;;29.88;;
84937;SDS011;75210;52.210;20.902;2024-03-08T05:49:35;76.72;;;30.23;;
84937;SDS011;75210;52.210;20.902;2024-03-08T05:50:35;65.85;;;29.52;;
84937;SDS011;75210;52.210;20.902;2024-03-08T05:51:36;69.18;;;30.20;;
84937;SDS011;75210;52.210;20.902;2024-03-08T05:52:38;72.68;;;31.50;;
84937;SDS011;75210;52.210;20.902;2024-03-08T05:53:41;75.60;;;32.08;;
84937;SDS011;75210;52.210;20.902;2024-03-08T05:55:43;64.32;;;28.58;;
84937;SDS011;75210;52.210;20.902;2024-03-08T05:56:47;63.60;;;29.05;;